Time;durP1;ratioP1;P1;durP2;ratioP2;P2;SDS_P1;SDS_P2;PMS_P1;PMS_P2;Temp;Humidity;BMP_temperature;BMP_pressure;BME280_temperature;BME280_humidity;BME280_pressure;Samples;Min_cycle;Max_cycle;Signal;HPM_P1;HPM_P2
2022/01/10 00:00:06;;;;;;;14.23;3.85;;;1.90;99.90;;;;;;5034235;28;20044;-74
2022/01/10 00:02:32;;;;;;;17.33;3.45;;;1.90;99.90;;;;;;5057480;28;20049;-73
2022/01/10 00:04:57;;;;;;;17.90;3.53;;;1.80;99.90;;;;;;5036649;28;20511;-74
2022/01/10 00:07:23;;;;;;;16.80;4.13;;;1.80;99.90;;;;;;5017580;28;20566;-74
2022/01/10 00:09:48;;;;;;;18.10;3.40;;;1.80;99.90;;;;;;5033058;28;20045;-74
2022/01/10 00:12:14;;;;;;;18.75;3.95;;;1.80;99.90;;;;;;5038866;28;20391;-74
2022/01/10 00:14:40;;;;;;;17.83;4.10;;;1.70;99.90;;;;;;5012116;28;20049;-74
2022/01/10 00:17:05;;;;;;;17.92;4.10;;;1.70;99.90;;;;;;5030298;28;20047;-73
2022/01/10 00:19:31;;;;;;;20.30;4.40;;;1.70;99.90;;;;;;5041356;28;20472;-73
2022/01/10 00:21:56;;;;;;;16.55;3.25;;;1.70;99.90;;;;;;5056938;28;20048;-73
2022/01/10 00:24:23;;;;;;;14.88;3.60;;;1.70;99.90;;;;;;5055581;28;20056;-74
2022/01/10 00:26:49;;;;;;;19.38;4.68;;;1.60;99.90;;;;;;5012394;28;20051;-74
2022/01/10 00:29:14;;;;;;;14.05;3.30;;;1.60;99.90;;;;;;5013573;28;20041;-74
2022/01/10 00:31:40;;;;;;;12.32;3.30;;;1.60;99.90;;;;;;5030050;28;20561;-74
2022/01/10 00:34:06;;;;;;;15.82;3.75;;;1.60;99.90;;;;;;5036597;28;20037;-74
2022/01/10 00:36:32;;;;;;;17.60;3.60;;;1.60;99.90;;;;;;5021463;28;20414;-74
2022/01/10 00:38:57;;;;;;;16.63;3.45;;;1.50;99.90;;;;;;5008353;28;20131;-74
2022/01/10 00:41:23;;;;;;;15.88;4.05;;;1.50;99.90;;;;;;5007435;28;20132;-74
2022/01/10 00:43:50;;;;;;;19.05;3.70;;;1.50;99.90;;;;;;5010515;28;20045;-74
2022/01/10 00:46:17;;;;;;;16.85;3.50;;;1.50;99.90;;;;;;5026029;28;20045;-74
2022/01/10 00:48:44;;;;;;;20.50;4.20;;;1.50;99.90;;;;;;5008008;28;20514;-73
2022/01/10 00:51:09;;;;;;;14.60;3.28;;;1.40;99.90;;;;;;5028859;28;20045;-74
2022/01/10 00:53:35;;;;;;;16.20;3.17;;;1.40;99.90;;;;;;5028000;28;20494;-74
2022/01/10 00:56:01;;;;;;;18.52;4.18;;;1.40;99.90;;;;;;5009820;28;20040;-74
2022/01/10 00:58:27;;;;;;;18.00;3.72;;;1.40;99.90;;;;;;5025282;28;20740;-74
2022/01/10 01:00:53;;;;;;;10.48;3.38;;;1.40;99.90;;;;;;5009562;28;20123;-74
2022/01/10 01:03:19;;;;;;;17.05;4.15;;;1.40;99.90;;;;;;5047958;28;20115;-74
2022/01/10 01:05:45;;;;;;;13.88;3.58;;;1.30;99.90;;;;;;5059368;28;20037;-74
2022/01/10 01:08:13;;;;;;;12.48;3.22;;;1.50;99.90;;;;;;5000030;28;20091;-74
2022/01/10 01:19:04;;;;;;;23.15;4.55;;;1.20;99.90;;;;;;5010289;28;20068;-74
2022/01/10 01:24:07;;;;;;;18.88;4.05;;;1.20;99.90;;;;;;5004422;28;20045;-74
2022/01/10 01:26:40;;;;;;;13.82;3.60;;;1.20;99.90;;;;;;4985640;28;20430;-74
2022/01/10 01:29:09;;;;;;;17.08;3.60;;;1.10;99.90;;;;;;5002280;28;20053;-74
2022/01/10 01:31:35;;;;;;;14.13;3.83;;;1.10;99.90;;;;;;5006848;28;20060;-74
2022/01/10 01:34:01;;;;;;;23.13;4.63;;;1.10;99.90;;;;;;4985678;28;20055;-74
2022/01/10 01:36:29;;;;;;;19.83;4.57;;;1.10;99.90;;;;;;5004781;28;20136;-74
2022/01/10 01:38:56;;;;;;;14.77;4.07;;;1.10;99.90;;;;;;4991061;28;20383;-74
2022/01/10 01:43:49;;;;;;;15.80;4.45;;;1.10;99.90;;;;;;5007994;28;20049;-73
2022/01/10 01:46:16;;;;;;;22.77;4.53;;;1.00;99.90;;;;;;5029001;28;20098;-73
2022/01/10 01:48:41;;;;;;;21.77;4.68;;;1.00;99.90;;;;;;5001277;28;20048;-74
2022/01/10 01:51:07;;;;;;;20.48;4.47;;;1.00;99.90;;;;;;5003867;28;20355;-72
2022/01/10 01:53:36;;;;;;;17.25;4.82;;;1.00;99.90;;;;;;4987956;28;20269;-74
2022/01/10 01:56:07;;;;;;;14.35;4.50;;;1.00;99.90;;;;;;4986053;28;20079;-74
2022/01/10 01:58:33;;;;;;;15.15;4.93;;;1.20;99.90;;;;;;5000306;28;20084;-74
2022/01/10 02:00:59;;;;;;;18.45;4.18;;;1.00;99.90;;;;;;5035391;28;20143;-74
2022/01/10 02:03:25;;;;;;;17.48;4.97;;;0.90;99.90;;;;;;4991231;28;20176;-74
2022/01/10 02:05:51;;;;;;;27.85;4.95;;;0.90;99.90;;;;;;5004776;28;20364;-74
2022/01/10 02:08:17;;;;;;;13.70;4.70;;;0.90;99.90;;;;;;5004836;28;20060;-74
2022/01/10 02:10:42;;;;;;;18.58;5.18;;;0.90;99.90;;;;;;4990255;28;20498;-74
2022/01/10 02:13:08;;;;;;;19.42;5.18;;;0.90;99.90;;;;;;5004097;28;20052;-74
2022/01/10 02:15:51;;;;;;;19.25;5.10;;;0.90;99.90;;;;;;5019709;28;20048;-73
2022/01/10 02:18:18;;;;;;;18.35;5.00;;;0.80;99.90;;;;;;5003477;28;20041;-74
2022/01/10 02:20:45;;;;;;;21.63;4.57;;;0.90;99.90;;;;;;5003156;28;20099;-74
2022/01/10 02:23:11;;;;;;;19.65;4.82;;;0.80;99.90;;;;;;5000016;28;20045;-74
2022/01/10 02:25:37;;;;;;;14.68;4.43;;;0.80;99.90;;;;;;5007070;28;20033;-74
2022/01/10 02:28:03;;;;;;;17.05;4.97;;;0.80;99.90;;;;;;4992193;28;20072;-74
2022/01/10 02:30:29;;;;;;;18.45;4.95;;;0.80;99.90;;;;;;4995314;28;20050;-74
2022/01/10 02:32:57;;;;;;;16.52;5.10;;;0.80;99.90;;;;;;5015207;28;20050;-74
2022/01/10 02:35:32;;;;;;;20.35;5.72;;;0.80;99.90;;;;;;4994997;28;20046;-74
2022/01/10 02:37:58;;;;;;;22.50;5.30;;;0.80;99.90;;;;;;5008430;28;20050;-74
2022/01/10 02:40:27;;;;;;;14.32;4.80;;;0.70;99.90;;;;;;4998781;28;20071;-74
2022/01/10 02:42:53;;;;;;;15.93;5.22;;;0.70;99.90;;;;;;5018878;28;20044;-73
2022/01/10 02:45:19;;;;;;;19.58;5.35;;;0.70;99.90;;;;;;5009906;28;20513;-74
2022/01/10 02:47:47;;;;;;;22.85;6.00;;;0.70;99.90;;;;;;5012823;28;20144;-73
2022/01/10 02:50:13;;;;;;;16.92;5.18;;;0.70;99.90;;;;;;5040777;28;20051;-73
2022/01/10 02:52:39;;;;;;;23.40;5.75;;;0.70;99.90;;;;;;5024346;28;20497;-73
2022/01/10 02:55:06;;;;;;;14.50;5.25;;;0.70;99.90;;;;;;5017213;28;20045;-73
2022/01/10 02:57:33;;;;;;;14.20;4.80;;;0.70;99.90;;;;;;5024825;28;20152;-73
2022/01/10 02:59:59;;;;;;;14.15;4.25;;;0.60;99.90;;;;;;5031847;28;20126;-74
2022/01/10 03:02:30;;;;;;;17.17;5.10;;;0.60;99.90;;;;;;5012515;28;20049;-73
2022/01/10 03:04:56;;;;;;;17.38;4.95;;;0.60;99.90;;;;;;5013986;28;20128;-73
2022/01/10 03:07:23;;;;;;;16.15;5.25;;;0.60;99.90;;;;;;5027254;28;20116;-73
2022/01/10 03:09:50;;;;;;;15.57;4.63;;;0.60;99.90;;;;;;5027784;28;20045;-73
2022/01/10 03:12:16;;;;;;;19.50;4.85;;;0.60;99.90;;;;;;5009274;28;20383;-73
2022/01/10 03:14:43;;;;;;;17.33;5.63;;;0.50;99.90;;;;;;5028582;28;20042;-73
2022/01/10 03:17:10;;;;;;;18.48;5.28;;;0.50;99.90;;;;;;5049731;28;20049;-73
2022/01/10 03:19:37;;;;;;;15.50;4.80;;;0.50;99.90;;;;;;5018662;28;20053;-73
2022/01/10 03:22:04;;;;;;;16.25;5.05;;;0.50;99.90;;;;;;5040291;28;20079;-73
2022/01/10 03:24:30;;;;;;;15.77;5.20;;;0.50;99.90;;;;;;5025017;28;20134;-73
2022/01/10 03:26:55;;;;;;;21.80;6.10;;;0.50;99.90;;;;;;5026716;28;20079;-73
2022/01/10 03:29:21;;;;;;;15.68;5.15;;;0.40;99.90;;;;;;5024487;28;20128;-73
2022/01/10 03:31:47;;;;;;;20.42;5.95;;;0.40;99.90;;;;;;5024753;28;20038;-73
2022/01/10 03:34:13;;;;;;;28.35;6.60;;;0.40;99.90;;;;;;5041529;28;20037;-73
2022/01/10 03:36:40;;;;;;;19.95;5.57;;;0.40;99.90;;;;;;5020456;28;20434;-73
2022/01/10 03:39:06;;;;;;;19.05;6.22;;;0.40;99.90;;;;;;5018784;28;20116;-73
2022/01/10 03:41:33;;;;;;;15.57;5.43;;;0.40;99.90;;;;;;5019795;28;20438;-73
2022/01/10 03:43:59;;;;;;;17.42;5.88;;;0.40;99.90;;;;;;5004599;28;20475;-73
2022/01/10 03:46:25;;;;;;;17.83;5.88;;;0.40;99.90;;;;;;5020394;28;20052;-74
2022/01/10 03:48:51;;;;;;;22.23;6.13;;;0.30;99.90;;;;;;5019868;28;20160;-74
2022/01/10 03:51:16;;;;;;;14.70;5.80;;;0.30;99.90;;;;;;5022771;28;20120;-74
2022/01/10 03:53:42;;;;;;;20.02;6.65;;;0.40;99.90;;;;;;5023549;28;20052;-73
2022/01/10 03:56:08;;;;;;;20.05;6.25;;;0.40;99.90;;;;;;5000426;28;20049;-73
2022/01/10 03:58:33;;;;;;;20.77;6.60;;;0.30;99.90;;;;;;4995459;28;20049;-73
2022/01/10 04:01:01;;;;;;;20.98;7.25;;;0.40;99.90;;;;;;5001820;28;20517;-73
2022/01/10 04:03:27;;;;;;;25.88;7.28;;;0.30;99.90;;;;;;4997250;28;20087;-73
2022/01/10 04:05:53;;;;;;;23.92;7.60;;;0.30;99.90;;;;;;5012243;28;20486;-73
2022/01/10 04:08:19;;;;;;;18.13;7.10;;;0.30;99.90;;;;;;5011800;28;20077;-73
2022/01/10 04:10:44;;;;;;;22.65;6.90;;;0.30;99.90;;;;;;5003319;28;20248;-74
2022/01/10 04:13:10;;;;;;;19.48;7.72;;;0.30;99.90;;;;;;4996040;28;20073;-73
2022/01/10 04:15:36;;;;;;;21.98;6.93;;;0.30;99.90;;;;;;5015242;28;20136;-73
2022/01/10 04:18:02;;;;;;;25.13;6.80;;;0.30;99.90;;;;;;5014228;28;20812;-73
2022/01/10 04:20:28;;;;;;;24.77;7.53;;;0.20;99.90;;;;;;5031733;28;20462;-73
2022/01/10 04:22:54;;;;;;;21.00;7.20;;;0.30;99.90;;;;;;5019897;28;20117;-73
2022/01/10 04:25:19;;;;;;;19.23;7.15;;;0.20;99.90;;;;;;5029166;28;20071;-73
2022/01/10 04:27:45;;;;;;;17.50;7.20;;;0.20;99.90;;;;;;5023780;28;20053;-73
2022/01/10 04:30:11;;;;;;;17.05;6.82;;;0.20;99.90;;;;;;5018366;28;20134;-73
2022/01/10 04:32:38;;;;;;;20.35;7.57;;;0.20;99.90;;;;;;5012927;28;20105;-72
2022/01/10 04:35:05;;;;;;;16.90;6.97;;;0.20;99.90;;;;;;5014367;28;20057;-73
2022/01/10 04:37:31;;;;;;;22.13;7.35;;;0.20;99.90;;;;;;5020793;28;20033;-73
2022/01/10 04:39:57;;;;;;;21.98;7.80;;;0.20;99.90;;;;;;5001903;28;20042;-73
2022/01/10 04:42:23;;;;;;;19.73;7.10;;;0.20;99.90;;;;;;5005338;28;20099;-73
2022/01/10 04:44:49;;;;;;;24.13;7.55;;;0.20;99.90;;;;;;5019958;28;20053;-72
2022/01/10 04:47:15;;;;;;;21.65;8.18;;;0.10;99.90;;;;;;5004946;28;20076;-73
2022/01/10 04:52:22;;;;;;;19.77;8.02;;;0.10;99.90;;;;;;5020831;28;20057;-73
2022/01/10 04:54:48;;;;;;;19.17;7.53;;;0.10;99.90;;;;;;5005012;28;20034;-73
2022/01/10 04:57:13;;;;;;;23.08;8.27;;;0.10;99.90;;;;;;5025148;28;20050;-73
2022/01/10 04:59:39;;;;;;;20.73;7.90;;;0.10;99.90;;;;;;5009180;28;20068;-73
2022/01/10 05:02:05;;;;;;;24.33;8.60;;;0.10;99.90;;;;;;5018222;28;20053;-73
2022/01/10 05:04:30;;;;;;;24.23;9.13;;;0.10;99.90;;;;;;5008051;28;20068;-73
2022/01/10 05:06:56;;;;;;;21.60;8.55;;;0.10;99.90;;;;;;5004476;28;20103;-73
2022/01/10 05:09:22;;;;;;;23.60;8.13;;;0.10;99.90;;;;;;5017035;28;20136;-73
2022/01/10 05:11:48;;;;;;;24.58;8.38;;;0.10;99.90;;;;;;5018053;28;20045;-73
2022/01/10 05:14:14;;;;;;;21.77;8.82;;;0.10;99.90;;;;;;4999632;28;20810;-73
2022/01/10 05:16:41;;;;;;;21.52;8.40;;;0.00;99.90;;;;;;5014017;28;20143;-73
2022/01/10 05:19:09;;;;;;;19.83;8.50;;;0.00;99.90;;;;;;5018099;28;20456;-73
2022/01/10 05:21:35;;;;;;;22.15;8.95;;;0.00;99.90;;;;;;5018658;28;20072;-73
2022/01/10 05:24:01;;;;;;;20.30;8.60;;;0.00;99.90;;;;;;5021150;28;20124;-73
2022/01/10 05:26:27;;;;;;;21.63;9.45;;;0.00;99.90;;;;;;5013902;28;20049;-73
2022/01/10 05:28:54;;;;;;;29.33;9.38;;;0.00;99.90;;;;;;5016418;28;20041;-73
2022/01/10 05:31:20;;;;;;;25.00;9.48;;;0.00;99.90;;;;;;5025007;28;20048;-73
2022/01/10 05:33:47;;;;;;;21.40;9.27;;;0.00;99.90;;;;;;5018373;28;20094;-73
2022/01/10 05:36:13;;;;;;;22.85;8.93;;;-0.10;99.90;;;;;;5013074;28;20042;-73
2022/01/10 05:38:38;;;;;;;26.10;9.88;;;-0.10;99.90;;;;;;5007492;28;20094;-73
2022/01/10 05:41:04;;;;;;;19.25;9.48;;;-0.10;99.90;;;;;;5018268;28;20596;-74
2022/01/10 05:43:30;;;;;;;25.80;10.80;;;-0.10;99.90;;;;;;5003489;28;20041;-73
2022/01/10 05:45:57;;;;;;;33.75;11.75;;;-0.10;99.90;;;;;;5000077;28;20513;-74
2022/01/10 05:48:26;;;;;;;23.50;11.23;;;-0.10;99.90;;;;;;5000607;28;20045;-73
2022/01/10 05:50:53;;;;;;;26.23;11.23;;;-0.10;99.90;;;;;;5001136;28;20107;-73
2022/01/10 05:53:19;;;;;;;28.38;11.40;;;-0.10;99.90;;;;;;5014812;28;20590;-73
2022/01/10 05:55:45;;;;;;;23.02;11.30;;;-0.10;99.90;;;;;;5016879;28;20106;-73
2022/01/10 05:58:11;;;;;;;30.15;12.90;;;-0.10;99.90;;;;;;5019145;28;20041;-73
2022/01/10 06:00:38;;;;;;;27.10;12.45;;;-0.10;99.90;;;;;;5020990;28;20362;-73
2022/01/10 06:03:04;;;;;;;26.17;12.38;;;-0.10;99.90;;;;;;5005934;28;20052;-73
2022/01/10 06:05:33;;;;;;;28.40;12.93;;;-0.20;99.90;;;;;;5017376;28;20433;-73
2022/01/10 06:08:00;;;;;;;40.15;14.50;;;-0.20;99.90;;;;;;5017295;28;20048;-73
2022/01/10 06:10:26;;;;;;;29.98;12.52;;;-0.10;99.90;;;;;;5013085;28;20150;-74
2022/01/10 06:12:52;;;;;;;29.02;13.40;;;-0.20;99.90;;;;;;5016872;28;20049;-74
2022/01/10 06:15:18;;;;;;;32.90;13.18;;;-0.20;99.90;;;;;;5024583;28;20644;-74
2022/01/10 06:17:43;;;;;;;34.42;14.48;;;-0.20;99.90;;;;;;5057045;28;20036;-74
2022/01/10 06:20:09;;;;;;;36.63;14.18;;;-0.20;99.90;;;;;;5021210;28;20661;-74
2022/01/10 06:22:35;;;;;;;29.02;13.75;;;-0.20;99.90;;;;;;5013034;28;20057;-74
2022/01/10 06:25:01;;;;;;;32.60;14.57;;;-0.20;99.90;;;;;;5008073;28;20060;-74
2022/01/10 06:27:26;;;;;;;30.50;15.00;;;-0.20;99.90;;;;;;4999487;28;20068;-74
2022/01/10 06:29:52;;;;;;;33.55;14.82;;;-0.20;99.90;;;;;;5002765;28;20173;-74
2022/01/10 06:32:18;;;;;;;32.53;15.32;;;-0.20;99.90;;;;;;5001763;28;20048;-74
2022/01/10 06:34:44;;;;;;;32.20;14.18;;;-0.20;99.90;;;;;;5023054;28;20041;-74
2022/01/10 06:37:09;;;;;;;29.92;14.15;;;-0.20;99.90;;;;;;5021772;28;20096;-74
2022/01/10 06:39:35;;;;;;;29.08;13.10;;;-0.20;99.90;;;;;;5005651;28;20048;-74
2022/01/10 06:42:01;;;;;;;30.55;13.90;;;-0.20;99.90;;;;;;5024433;28;20088;-74
2022/01/10 06:44:27;;;;;;;35.72;15.55;;;-0.20;99.90;;;;;;5009098;28;20056;-73
2022/01/10 06:46:53;;;;;;;32.70;14.40;;;-0.20;99.90;;;;;;5001321;28;20563;-74
2022/01/10 06:49:19;;;;;;;35.40;15.30;;;-0.30;99.90;;;;;;5002168;28;20045;-74
2022/01/10 06:51:44;;;;;;;27.65;13.10;;;-0.30;99.90;;;;;;5015287;28;20722;-74
2022/01/10 06:54:10;;;;;;;32.90;13.85;;;-0.20;99.90;;;;;;5014720;28;20045;-74
2022/01/10 06:56:36;;;;;;;31.10;14.75;;;-0.30;99.90;;;;;;4993363;28;20059;-74
2022/01/10 06:59:01;;;;;;;29.58;14.23;;;-0.30;99.90;;;;;;5016550;28;20036;-74
2022/01/10 07:01:27;;;;;;;38.70;15.23;;;-0.30;99.90;;;;;;5000730;28;20056;-74
2022/01/10 07:03:54;;;;;;;41.47;17.05;;;-0.30;99.90;;;;;;5010893;28;20442;-74
2022/01/10 07:06:20;;;;;;;30.52;15.50;;;-0.30;99.90;;;;;;5005801;28;20053;-74
2022/01/10 07:08:46;;;;;;;35.10;15.90;;;-0.30;99.90;;;;;;5010236;28;20042;-74
2022/01/10 07:11:11;;;;;;;33.70;16.45;;;-0.30;99.90;;;;;;5012626;28;20059;-74
2022/01/10 07:13:37;;;;;;;30.02;15.38;;;-0.30;99.90;;;;;;5005367;28;20221;-74
2022/01/10 07:16:03;;;;;;;32.70;15.20;;;-0.30;99.90;;;;;;5013800;28;20639;-74
2022/01/10 07:18:29;;;;;;;37.38;15.73;;;-0.30;99.90;;;;;;5011172;28;20095;-73
2022/01/10 07:20:55;;;;;;;30.17;16.30;;;-0.30;99.90;;;;;;5016220;28;20139;-74
2022/01/10 07:23:21;;;;;;;31.40;16.15;;;-0.40;99.90;;;;;;5011874;28;20044;-74
2022/01/10 07:25:46;;;;;;;32.28;17.02;;;-0.40;99.90;;;;;;5025099;28;20396;-74
2022/01/10 07:28:12;;;;;;;33.92;15.68;;;-0.40;99.90;;;;;;5026167;28;20075;-74
2022/01/10 07:30:38;;;;;;;35.25;16.00;;;-0.40;99.90;;;;;;5007006;28;20044;-74
2022/01/10 07:33:03;;;;;;;33.70;16.48;;;-0.40;99.90;;;;;;5026603;28;20095;-74
2022/01/10 07:35:29;;;;;;;32.03;16.50;;;-0.40;99.90;;;;;;5025370;28;20409;-74
2022/01/10 07:37:55;;;;;;;38.28;16.98;;;-0.40;99.90;;;;;;5020966;28;20044;-74
2022/01/10 07:40:21;;;;;;;40.88;17.20;;;-0.40;99.90;;;;;;5021289;28;20041;-74
2022/01/10 07:42:46;;;;;;;34.33;16.80;;;-0.40;99.90;;;;;;5009312;28;20103;-74
2022/01/10 07:45:12;;;;;;;43.22;17.25;;;-0.40;99.90;;;;;;5020287;28;20049;-74
2022/01/10 07:47:38;;;;;;;36.10;17.70;;;-0.40;99.90;;;;;;5025164;28;20509;-74
2022/01/10 07:50:05;;;;;;;34.80;17.55;;;-0.40;99.90;;;;;;5011815;28;20045;-74
2022/01/10 07:52:31;;;;;;;37.90;18.38;;;-0.40;99.90;;;;;;5043242;28;20091;-74
2022/01/10 07:54:57;;;;;;;38.03;17.73;;;-0.40;99.90;;;;;;5025684;28;21192;-74
2022/01/10 07:57:23;;;;;;;36.00;18.65;;;0.00;99.90;;;;;;5028095;28;20045;-73
2022/01/10 07:59:48;;;;;;;41.05;19.00;;;-0.40;99.90;;;;;;5012692;28;20048;-74
2022/01/10 08:02:15;;;;;;;36.67;18.95;;;-0.40;99.90;;;;;;5023954;28;20039;-74
2022/01/10 08:04:41;;;;;;;43.30;18.88;;;-0.40;99.90;;;;;;5026624;28;20106;-74
2022/01/10 08:07:06;;;;;;;40.40;18.25;;;-0.40;99.90;;;;;;5027434;28;20547;-74
2022/01/10 08:09:32;;;;;;;38.15;18.02;;;-0.40;99.90;;;;;;5008718;28;20043;-74
2022/01/10 08:11:59;;;;;;;43.60;18.55;;;-0.40;99.90;;;;;;5027313;28;20076;-74
2022/01/10 08:14:32;;;;;;;42.13;19.08;;;-0.40;99.90;;;;;;5027628;28;20061;-74
2022/01/10 08:16:59;;;;;;;57.17;22.48;;;-0.40;99.90;;;;;;5027033;28;20159;-74
2022/01/10 08:19:26;;;;;;;50.85;21.17;;;-0.30;99.90;;;;;;5007634;28;20057;-74
2022/01/10 08:21:55;;;;;;;42.70;18.65;;;-0.30;99.90;;;;;;5022466;28;20901;-74
2022/01/10 08:24:22;;;;;;;46.17;19.08;;;-0.30;99.90;;;;;;5029067;28;20536;-74
2022/01/10 08:26:49;;;;;;;39.08;17.98;;;-0.30;99.90;;;;;;5031202;28;20036;-74
2022/01/10 08:29:14;;;;;;;35.97;19.38;;;-0.20;99.90;;;;;;5027762;28;20057;-74
2022/01/10 08:31:40;;;;;;;43.03;20.08;;;0.10;99.90;;;;;;5030287;28;20739;-74
2022/01/10 08:34:06;;;;;;;41.45;19.42;;;-0.10;99.90;;;;;;5011802;28;20067;-73
2022/01/10 08:36:33;;;;;;;43.85;19.83;;;-0.10;99.90;;;;;;5027980;28;20056;-74
2022/01/10 08:39:00;;;;;;;44.13;19.58;;;-0.10;99.90;;;;;;5027240;28;20048;-74
2022/01/10 08:41:25;;;;;;;43.30;20.55;;;0.00;99.90;;;;;;5028158;28;20564;-74
2022/01/10 08:43:51;;;;;;;45.10;20.35;;;0.00;99.90;;;;;;5013251;28;20124;-74
2022/01/10 08:46:17;;;;;;;46.78;22.75;;;0.00;99.90;;;;;;5010546;28;20078;-74
2022/01/10 08:48:44;;;;;;;55.42;22.73;;;0.10;99.90;;;;;;5011270;28;20075;-74
2022/01/10 08:51:10;;;;;;;55.47;21.33;;;0.10;99.90;;;;;;5027225;28;20094;-74
2022/01/10 08:53:36;;;;;;;43.85;20.83;;;0.10;99.90;;;;;;5027461;28;20125;-74
2022/01/10 08:56:03;;;;;;;37.85;20.98;;;0.10;99.90;;;;;;5024653;28;20045;-74
2022/01/10 08:58:32;;;;;;;51.95;23.38;;;0.20;99.90;;;;;;5026914;28;20043;-74
2022/01/10 09:01:06;;;;;;;40.60;21.55;;;0.20;99.90;;;;;;5028592;28;20037;-74
2022/01/10 09:03:32;;;;;;;48.90;23.27;;;0.30;99.90;;;;;;5027061;28;20086;-74
2022/01/10 09:05:59;;;;;;;39.85;20.58;;;0.30;99.90;;;;;;5026080;28;20037;-74
2022/01/10 09:08:33;;;;;;;49.53;22.52;;;0.30;99.90;;;;;;5026800;28;20067;-74
2022/01/10 09:10:59;;;;;;;51.75;24.27;;;0.30;99.90;;;;;;5028031;28;20068;-74
2022/01/10 09:13:25;;;;;;;40.33;23.05;;;0.40;99.90;;;;;;5006637;28;20164;-75
2022/01/10 09:15:50;;;;;;;51.88;24.98;;;0.80;99.90;;;;;;5007684;28;20372;-75
2022/01/10 09:18:17;;;;;;;56.17;25.98;;;0.60;99.90;;;;;;5006804;28;20052;-74
2022/01/10 09:20:44;;;;;;;51.35;26.23;;;0.70;99.90;;;;;;5008397;28;20034;-74
2022/01/10 09:23:10;;;;;;;60.22;26.90;;;0.80;99.90;;;;;;5006475;28;20041;-74
2022/01/10 09:25:36;;;;;;;45.97;24.15;;;1.10;99.90;;;;;;5006299;28;20128;-75
2022/01/10 09:28:03;;;;;;;54.08;25.48;;;1.30;99.90;;;;;;5022983;28;20124;-75
2022/01/10 09:30:29;;;;;;;46.10;24.35;;;1.30;99.90;;;;;;5006551;28;20095;-75
2022/01/10 09:32:55;;;;;;;63.35;29.13;;;1.20;99.90;;;;;;5019757;28;20041;-74
2022/01/10 09:35:22;;;;;;;47.35;25.20;;;1.20;99.90;;;;;;5005999;28;20049;-75
2022/01/10 09:37:48;;;;;;;51.05;25.52;;;1.20;99.90;;;;;;5003181;28;20467;-74
2022/01/10 09:40:14;;;;;;;57.72;29.13;;;1.20;99.90;;;;;;5008270;28;20478;-75
2022/01/10 09:42:42;;;;;;;67.70;30.50;;;1.20;99.90;;;;;;5025049;28;20048;-75
2022/01/10 09:45:08;;;;;;;51.03;26.65;;;1.20;99.90;;;;;;5025063;28;20081;-74
2022/01/10 09:47:35;;;;;;;63.78;29.98;;;1.30;99.90;;;;;;5022611;28;20124;-74
2022/01/10 09:50:00;;;;;;;61.85;29.35;;;1.30;99.90;;;;;;5024348;28;20052;-75
2022/01/10 09:52:26;;;;;;;52.28;27.70;;;1.40;99.90;;;;;;5008642;28;20057;-75
2022/01/10 09:54:53;;;;;;;62.38;30.70;;;1.40;99.90;;;;;;5054715;28;20041;-74
2022/01/10 09:57:20;;;;;;;69.07;31.08;;;1.50;99.90;;;;;;5022005;28;20532;-75
2022/01/10 09:59:47;;;;;;;54.58;27.60;;;1.50;99.90;;;;;;5019397;28;20042;-75
2022/01/10 10:02:17;;;;;;;59.22;29.67;;;1.50;99.90;;;;;;5041032;28;20465;-74
2022/01/10 10:04:44;;;;;;;68.18;33.03;;;1.60;99.90;;;;;;5027595;28;20069;-74
2022/01/10 10:07:10;;;;;;;68.53;32.63;;;1.70;99.90;;;;;;5023338;28;20045;-75
2022/01/10 10:09:36;;;;;;;67.53;32.40;;;1.70;99.90;;;;;;5022489;28;20132;-75
2022/01/10 10:12:04;;;;;;;60.10;30.90;;;1.70;99.90;;;;;;5005013;28;20048;-75
2022/01/10 10:14:30;;;;;;;64.25;32.40;;;1.80;99.90;;;;;;5004691;28;20666;-75
2022/01/10 10:16:57;;;;;;;66.03;31.83;;;1.80;99.90;;;;;;5023004;28;20410;-75
2022/01/10 10:19:26;;;;;;;66.57;30.13;;;1.90;99.90;;;;;;5007191;28;20105;-75
2022/01/10 10:21:53;;;;;;;64.95;32.72;;;2.00;99.90;;;;;;5024498;28;20050;-74
2022/01/10 10:24:19;;;;;;;60.42;33.15;;;2.10;99.90;;;;;;5008256;28;20053;-75
2022/01/10 10:26:46;;;;;;;60.88;31.10;;;2.10;99.90;;;;;;5024877;28;20502;-75
2022/01/10 10:29:17;;;;;;;64.22;32.30;;;2.20;99.90;;;;;;5024000;28;20052;-75
2022/01/10 10:31:45;;;;;;;68.78;32.88;;;2.30;99.90;;;;;;5026615;28;20049;-75
2022/01/10 10:34:20;;;;;;;62.33;29.45;;;2.30;99.90;;;;;;5011659;28;20095;-75
2022/01/10 10:36:57;;;;;;;59.40;30.75;;;2.40;99.90;;;;;;5025651;28;20120;-75
2022/01/10 10:39:25;;;;;;;56.58;29.58;;;2.40;99.90;;;;;;5009051;28;20408;-75
2022/01/10 10:41:55;;;;;;;62.08;29.08;;;2.50;99.90;;;;;;5007769;28;20045;-75
2022/01/10 10:44:21;;;;;;;59.67;30.43;;;2.50;99.90;;;;;;5004994;28;20087;-75
2022/01/10 10:46:49;;;;;;;65.63;29.52;;;2.50;99.90;;;;;;5019399;28;20045;-75
2022/01/10 10:49:18;;;;;;;64.80;28.65;;;2.60;99.90;;;;;;5018872;28;20142;-75
2022/01/10 10:51:47;;;;;;;55.97;28.77;;;2.90;99.90;;;;;;5002802;28;20048;-75
2022/01/10 10:54:14;;;;;;;50.70;27.00;;;2.70;99.90;;;;;;5023549;28;20038;-75
2022/01/10 10:56:42;;;;;;;50.50;25.67;;;2.70;99.90;;;;;;5004652;28;20048;-75
2022/01/10 10:59:08;;;;;;;55.20;27.45;;;2.70;99.90;;;;;;5024761;28;20508;-75
2022/01/10 11:01:37;;;;;;;50.42;25.15;;;2.90;99.90;;;;;;5027011;28;20117;-75
2022/01/10 11:04:04;;;;;;;53.40;25.30;;;2.80;99.90;;;;;;5005694;28;20053;-76
2022/01/10 11:06:33;;;;;;;63.33;27.48;;;2.90;99.90;;;;;;5019316;28;20037;-75
2022/01/10 11:09:04;;;;;;;53.75;26.73;;;2.90;99.90;;;;;;5023344;28;20051;-75
2022/01/10 11:11:30;;;;;;;56.22;26.98;;;3.00;99.90;;;;;;5021924;28;20056;-75
2022/01/10 11:13:58;;;;;;;49.80;25.77;;;3.00;99.90;;;;;;5005180;28;20057;-75
2022/01/10 11:16:24;;;;;;;52.30;27.40;;;3.10;99.90;;;;;;5021815;28;20112;-75
2022/01/10 11:18:50;;;;;;;60.33;28.63;;;3.20;99.90;;;;;;5020866;28;20041;-75
2022/01/10 11:21:17;;;;;;;62.88;29.27;;;3.20;99.90;;;;;;5008331;28;20045;-75
2022/01/10 11:23:45;;;;;;;53.58;28.10;;;3.30;99.90;;;;;;5005107;28;20053;-75
2022/01/10 11:26:13;;;;;;;54.30;27.58;;;3.40;99.90;;;;;;5034335;28;20041;-75
2022/01/10 11:28:54;;;;;;;60.92;30.77;;;3.50;99.90;;;;;;4994915;28;20063;-75
2022/01/10 11:31:22;;;;;;;57.53;27.35;;;3.60;99.90;;;;;;5016601;28;20038;-76
2022/01/10 11:33:50;;;;;;;58.25;27.13;;;3.70;99.90;;;;;;5019920;28;20433;-76
2022/01/10 11:36:18;;;;;;;46.97;25.98;;;3.80;99.90;;;;;;5005869;28;20502;-75
2022/01/10 11:38:49;;;;;;;51.50;26.83;;;3.80;99.90;;;;;;5018269;28;21849;-75
2022/01/10 11:41:15;;;;;;;51.47;25.92;;;3.90;99.90;;;;;;5009554;28;20129;-75
2022/01/10 11:44:12;;;;;;;54.70;25.40;;;3.90;99.90;;;;;;5029372;28;20498;-75
2022/01/10 11:46:46;;;;;;;47.70;24.52;;;4.00;99.90;;;;;;4997868;28;20076;-75
2022/01/10 11:49:12;;;;;;;45.78;23.42;;;4.00;99.90;;;;;;4996808;28;20046;-75
2022/01/10 11:51:50;;;;;;;48.42;24.75;;;4.10;99.90;;;;;;5012382;28;20257;-76
2022/01/10 11:54:35;;;;;;;42.55;23.88;;;4.10;99.90;;;;;;5012864;28;20049;-76
2022/01/10 11:57:03;;;;;;;50.67;22.83;;;4.20;99.90;;;;;;5003196;28;20111;-76
2022/01/10 11:59:29;;;;;;;44.53;23.17;;;4.30;99.90;;;;;;5019146;28;20045;-75
2022/01/10 12:02:04;;;;;;;45.90;22.23;;;4.30;99.90;;;;;;5004074;28;20041;-75
2022/01/10 12:04:53;;;;;;;43.45;22.23;;;4.30;99.90;;;;;;5012271;28;20113;-75
2022/01/10 12:07:24;;;;;;;42.05;21.67;;;4.40;99.90;;;;;;5044429;28;20044;-76
2022/01/10 12:09:51;;;;;;;43.50;20.88;;;4.40;99.90;;;;;;5013296;28;20053;-76
2022/01/10 12:12:19;;;;;;;39.75;19.80;;;4.50;99.90;;;;;;5013333;28;20134;-76
2022/01/10 12:14:47;;;;;;;43.83;20.83;;;4.50;99.90;;;;;;5031100;28;20041;-76
2022/01/10 12:17:13;;;;;;;42.13;20.30;;;4.50;99.90;;;;;;5041955;28;20060;-75
2022/01/10 12:19:39;;;;;;;42.25;21.33;;;4.10;99.90;;;;;;5015868;28;20133;-75
2022/01/10 12:22:07;;;;;;;42.97;20.25;;;4.80;99.90;;;;;;5008158;28;20060;-75
2022/01/10 12:24:35;;;;;;;46.42;20.70;;;4.70;99.90;;;;;;5017110;28;20528;-75
2022/01/10 12:27:02;;;;;;;42.85;22.13;;;5.10;99.90;;;;;;5009091;28;20042;-75
2022/01/10 12:29:29;;;;;;;39.35;21.75;;;4.80;99.90;;;;;;5014443;28;20152;-75
2022/01/10 12:31:55;;;;;;;38.22;20.77;;;4.90;99.90;;;;;;5004025;28;20057;-75
2022/01/10 12:34:21;;;;;;;38.47;19.40;;;5.00;99.90;;;;;;5052698;28;20041;-75
2022/01/10 12:36:47;;;;;;;34.70;19.35;;;5.00;99.90;;;;;;5021437;28;20064;-75
2022/01/10 12:39:25;;;;;;;35.88;18.05;;;5.00;99.90;;;;;;5002252;28;20129;-75
2022/01/10 12:41:51;;;;;;;37.95;17.65;;;5.00;99.90;;;;;;5018706;28;20057;-75
2022/01/10 12:44:18;;;;;;;39.10;18.60;;;5.00;99.90;;;;;;5021501;28;20099;-75
2022/01/10 12:46:44;;;;;;;34.40;18.98;;;5.00;99.90;;;;;;5038839;28;20041;-75
2022/01/10 12:49:11;;;;;;;40.45;19.95;;;5.30;99.90;;;;;;5020076;28;20053;-75
2022/01/10 12:51:45;;;;;;;35.22;19.55;;;5.00;99.90;;;;;;5020484;28;20056;-75